• vieta
  • image
  • image
  • image

Šiandien

Ketvirtadienis, 17 Balandis 2014

Orų prognozė

Šiauliai 0 °C
   

Orų prognozė aviacijai

[source: ADDS]
METAR
EYSA 162050Z 24001KT CAVOK M00/M04 Q1027 =
TAF
TAF EYSA 162000Z 1621/1706 VRB04KT 9000 NSC =
SR / SS: 03:18 / 17:36 UTC (EYSA 2014-04-17)

Lankytojai

Mes turime 1 svečią online